createdAt,value
2022-12-24T00:00:29.846Z,5.20
2022-12-24T00:05:32.879Z,5.20
2022-12-24T00:10:35.881Z,5.20
2022-12-24T00:15:38.771Z,5.30
2022-12-24T00:20:41.969Z,5.30
2022-12-24T00:25:45.934Z,5.30
2022-12-24T00:30:48.735Z,5.20
2022-12-24T00:35:53.307Z,5.20
2022-12-24T00:41:01.761Z,5.30
2022-12-24T00:46:05.273Z,5.30
2022-12-24T00:51:08.458Z,5.30
2022-12-24T00:56:11.454Z,5.30
2022-12-24T01:01:15.661Z,5.30
2022-12-24T01:06:21.641Z,5.30
2022-12-24T01:11:25.331Z,5.30
2022-12-24T01:16:28.254Z,5.30
2022-12-24T01:21:31.208Z,5.30
2022-12-24T01:26:34.289Z,5.30
2022-12-24T01:31:37.525Z,5.30
2022-12-24T01:36:40.888Z,5.30
2022-12-24T01:42:03.121Z,5.30
2022-12-24T01:47:25.791Z,5.40
2022-12-24T01:52:34.700Z,5.40
2022-12-24T01:57:48.236Z,5.40
2022-12-24T02:02:54.135Z,5.40
2022-12-24T02:07:59.787Z,5.30
2022-12-24T02:13:04.311Z,5.30
2022-12-24T02:18:52.227Z,5.30
2022-12-24T02:24:29.069Z,5.30
2022-12-24T02:30:05.756Z,5.30
2022-12-24T02:35:12.899Z,5.30
2022-12-24T02:40:23.631Z,5.30
2022-12-24T02:45:31.821Z,5.30
2022-12-24T02:50:36.046Z,5.30
2022-12-24T02:56:08.210Z,5.30
2022-12-24T03:01:29.300Z,5.30
2022-12-24T03:06:52.645Z,5.30
2022-12-24T03:12:10.176Z,5.40
2022-12-24T03:17:13.695Z,5.40
2022-12-24T03:22:18.142Z,5.50
2022-12-24T03:27:21.699Z,5.50
2022-12-24T03:32:31.039Z,5.40
2022-12-24T03:37:34.165Z,5.40
2022-12-24T03:42:37.205Z,5.30
2022-12-24T03:47:40.335Z,5.20
2022-12-24T03:52:44.110Z,5.40
2022-12-24T03:57:47.168Z,6.00
2022-12-24T04:02:50.136Z,6.50
2022-12-24T04:07:53.230Z,7.00
2022-12-24T04:12:56.175Z,7.30
2022-12-24T04:17:59.062Z,7.50
2022-12-24T04:23:01.874Z,7.70
2022-12-24T04:28:04.846Z,7.90
2022-12-24T04:33:07.860Z,8.10
2022-12-24T04:38:11.196Z,8.20
2022-12-24T04:43:14.583Z,8.30
2022-12-24T04:48:17.481Z,8.50
2022-12-24T04:53:20.466Z,8.70
2022-12-24T04:58:23.491Z,8.80
2022-12-24T05:03:27.273Z,9.00
2022-12-24T05:08:30.211Z,9.00
2022-12-24T05:13:44.155Z,9.10
2022-12-24T05:18:49.742Z,9.10
2022-12-24T05:24:12.059Z,9.10
2022-12-24T05:29:15.235Z,8.80
2022-12-24T05:34:18.223Z,8.30
2022-12-24T05:39:21.442Z,7.90
2022-12-24T05:44:24.336Z,7.50
2022-12-24T05:49:27.546Z,7.30
2022-12-24T05:54:30.613Z,7.60
2022-12-24T05:59:33.674Z,8.10
2022-12-24T06:04:37.837Z,8.60
2022-12-24T06:09:40.729Z,9.10
2022-12-24T06:14:43.662Z,9.30
2022-12-24T06:19:46.545Z,9.60
2022-12-24T06:24:49.429Z,9.70
2022-12-24T06:29:52.369Z,9.80
2022-12-24T06:34:55.221Z,9.90
2022-12-24T06:39:58.081Z,10.00
2022-12-24T06:45:07.634Z,10.00
2022-12-24T06:50:12.042Z,10.00
2022-12-24T06:55:15.174Z,10.00
2022-12-24T07:00:18.670Z,9.40
2022-12-24T07:05:22.813Z,8.70
2022-12-24T07:10:25.814Z,8.20
2022-12-24T07:15:29.159Z,7.70
2022-12-24T07:20:32.281Z,7.30
2022-12-24T07:25:35.584Z,7.00
2022-12-24T07:30:38.620Z,6.80
2022-12-24T07:35:41.331Z,6.70
2022-12-24T07:40:44.219Z,6.60
2022-12-24T07:45:47.140Z,6.40
2022-12-24T07:50:51.118Z,6.40
2022-12-24T07:55:54.341Z,6.40
2022-12-24T08:01:01.024Z,6.40
2022-12-24T08:06:04.370Z,6.50
2022-12-24T08:11:07.931Z,6.60
2022-12-24T08:16:11.052Z,6.70
2022-12-24T08:21:14.311Z,6.90
2022-12-24T08:26:17.383Z,7.00
2022-12-24T08:31:20.421Z,7.20
2022-12-24T08:36:23.457Z,7.30
2022-12-24T08:41:26.378Z,7.50
2022-12-24T08:46:29.368Z,8.00
2022-12-24T08:51:32.392Z,8.50
2022-12-24T08:56:35.566Z,8.90
2022-12-24T09:01:39.070Z,9.30
2022-12-24T09:06:42.080Z,9.80
2022-12-24T09:11:45.699Z,10.00
2022-12-24T09:16:49.731Z,10.40
2022-12-24T09:21:52.828Z,10.60
2022-12-24T09:26:57.907Z,10.90
2022-12-24T09:32:01.262Z,11.10
2022-12-24T09:37:04.413Z,11.40
2022-12-24T09:42:37.501Z,11.50
2022-12-24T09:47:52.828Z,11.70
2022-12-24T09:52:57.503Z,11.90
2022-12-24T09:58:04.456Z,12.20
2022-12-24T10:03:16.735Z,12.50
2022-12-24T10:08:41.375Z,12.60
2022-12-24T10:14:26.557Z,12.70
2022-12-24T10:20:17.460Z,12.70
2022-12-24T10:25:34.538Z,12.60
2022-12-24T10:30:37.478Z,12.70
2022-12-24T10:35:49.101Z,12.60
2022-12-24T10:40:56.121Z,12.60
2022-12-24T10:46:04.845Z,12.70
2022-12-24T10:51:35.802Z,12.70
2022-12-24T10:57:04.687Z,12.80
2022-12-24T11:02:38.120Z,12.90
2022-12-24T11:07:41.580Z,13.10
2022-12-24T11:13:05.789Z,13.20
2022-12-24T11:18:16.025Z,13.30
2022-12-24T11:23:21.023Z,13.40
2022-12-24T11:28:33.686Z,13.50
2022-12-24T11:33:52.904Z,13.60
2022-12-24T11:38:58.464Z,13.70
2022-12-24T11:44:07.908Z,13.70
2022-12-24T11:49:37.239Z,13.70
2022-12-24T11:55:18.126Z,13.80
2022-12-24T12:00:21.307Z,13.80
2022-12-24T12:05:43.126Z,13.90
2022-12-24T12:10:49.641Z,13.90
2022-12-24T12:16:05.847Z,13.90
2022-12-24T12:21:21.229Z,13.90
2022-12-24T12:26:32.321Z,13.70
2022-12-24T12:31:53.778Z,13.70
2022-12-24T12:37:15.249Z,13.70
2022-12-24T12:42:35.673Z,13.60
2022-12-24T12:48:08.343Z,13.50
2022-12-24T12:53:24.266Z,13.40
2022-12-24T12:58:33.266Z,13.20
2022-12-24T13:04:05.891Z,13.10
2022-12-24T13:09:17.628Z,13.10
2022-12-24T13:15:04.164Z,13.10
2022-12-24T13:20:14.934Z,13.00
2022-12-24T13:25:45.253Z,12.90
2022-12-24T13:30:53.308Z,12.80
2022-12-24T13:36:16.665Z,12.70
2022-12-24T13:41:41.184Z,12.60
2022-12-24T13:47:25.402Z,12.40
2022-12-24T13:52:32.872Z,12.30
2022-12-24T13:57:45.459Z,12.20
2022-12-24T14:03:04.513Z,12.20
2022-12-24T14:08:26.390Z,12.10
2022-12-24T14:13:38.511Z,12.10
2022-12-24T14:18:46.122Z,12.00
2022-12-24T14:24:14.270Z,11.80
2022-12-24T14:29:32.060Z,11.70
2022-12-24T14:34:34.954Z,11.60
2022-12-24T14:39:48.105Z,11.60
2022-12-24T14:45:09.244Z,11.50
2022-12-24T14:50:40.544Z,11.30
2022-12-24T14:55:45.986Z,11.20
2022-12-24T15:00:49.942Z,11.10
2022-12-24T15:06:19.192Z,11.00
2022-12-24T15:11:24.396Z,10.90
2022-12-24T15:16:37.179Z,10.80
2022-12-24T15:21:44.293Z,10.70
2022-12-24T15:26:47.316Z,10.60
2022-12-24T15:32:02.112Z,10.50
2022-12-24T15:37:19.649Z,10.50
2022-12-24T15:42:24.464Z,10.40
2022-12-24T15:47:39.700Z,10.40
2022-12-24T15:52:44.026Z,10.50
2022-12-24T15:57:47.627Z,10.60
2022-12-24T16:02:51.117Z,10.60
2022-12-24T16:08:16.877Z,10.60
2022-12-24T16:13:29.175Z,10.70
2022-12-24T16:18:36.806Z,10.60
2022-12-24T16:23:48.741Z,10.50
2022-12-24T16:28:51.669Z,10.50
2022-12-24T16:33:57.926Z,10.40
2022-12-24T16:39:20.468Z,10.40
2022-12-24T16:44:23.450Z,10.30
2022-12-24T16:49:27.278Z,10.20
2022-12-24T16:54:30.210Z,10.20
2022-12-24T16:59:33.025Z,10.20
2022-12-24T17:04:36.320Z,10.10
2022-12-24T17:09:39.231Z,10.10
2022-12-24T17:14:42.556Z,9.90
2022-12-24T17:19:45.429Z,9.90
2022-12-24T17:24:48.850Z,9.90
2022-12-24T17:29:52.163Z,9.80
2022-12-24T17:34:55.030Z,9.70
2022-12-24T17:39:57.986Z,9.50
2022-12-24T17:45:01.038Z,9.30
2022-12-24T17:50:04.601Z,9.10
2022-12-24T17:55:09.049Z,9.00
2022-12-24T18:00:13.195Z,8.80
2022-12-24T18:05:16.328Z,8.70
2022-12-24T18:10:19.602Z,8.60
2022-12-24T18:15:22.993Z,8.50
2022-12-24T18:20:26.094Z,8.30
2022-12-24T18:25:28.931Z,8.20
2022-12-24T18:30:32.086Z,8.40
2022-12-24T18:35:34.845Z,8.60
2022-12-24T18:40:38.041Z,8.70
2022-12-24T18:45:43.103Z,8.90
2022-12-24T18:50:56.709Z,9.10
2022-12-24T18:56:11.108Z,9.20
2022-12-24T19:01:33.012Z,9.40
2022-12-24T19:06:36.975Z,9.60
2022-12-24T19:11:40.643Z,9.70
2022-12-24T19:16:43.717Z,9.70
2022-12-24T19:21:47.607Z,9.60
2022-12-24T19:26:51.020Z,9.60
2022-12-24T19:31:54.208Z,9.50
2022-12-24T19:36:57.258Z,9.30
2022-12-24T19:42:01.320Z,9.30
2022-12-24T19:47:04.655Z,9.30
2022-12-24T19:52:07.987Z,9.40
2022-12-24T19:57:11.793Z,9.60
2022-12-24T20:02:14.734Z,9.50
2022-12-24T20:07:17.858Z,9.40
2022-12-24T20:12:20.806Z,9.30
2022-12-24T20:17:24.044Z,9.20
2022-12-24T20:22:27.045Z,9.20
2022-12-24T20:27:30.161Z,9.30
2022-12-24T20:32:33.205Z,9.30
2022-12-24T20:37:45.711Z,9.20
2022-12-24T20:42:49.500Z,9.10
2022-12-24T20:47:52.449Z,9.00
2022-12-24T20:52:55.385Z,8.90
2022-12-24T20:57:58.506Z,8.70
2022-12-24T21:03:01.709Z,8.70
2022-12-24T21:08:04.912Z,8.60
2022-12-24T21:13:08.419Z,8.60
2022-12-24T21:18:12.021Z,8.70
2022-12-24T21:23:14.907Z,8.60
2022-12-24T21:28:18.465Z,8.50
2022-12-24T21:33:21.776Z,8.30
2022-12-24T21:38:26.014Z,8.10
2022-12-24T21:43:33.861Z,8.10
2022-12-24T21:48:56.877Z,8.30
2022-12-24T21:54:18.766Z,8.40
2022-12-24T21:59:26.358Z,8.60
2022-12-24T22:04:32.463Z,8.70
2022-12-24T22:09:56.981Z,8.70
2022-12-24T22:15:00.108Z,8.60
2022-12-24T22:20:03.956Z,8.50
2022-12-24T22:25:10.165Z,8.30
2022-12-24T22:30:13.308Z,8.20
2022-12-24T22:35:17.071Z,8.00
2022-12-24T22:40:19.976Z,7.80
2022-12-24T22:45:23.085Z,7.70
2022-12-24T22:50:27.341Z,7.60
2022-12-24T22:55:30.240Z,7.60
2022-12-24T23:00:51.508Z,7.60
2022-12-24T23:06:03.946Z,7.50
2022-12-24T23:11:14.503Z,7.50
2022-12-24T23:16:17.503Z,7.40
2022-12-24T23:21:20.677Z,7.30
2022-12-24T23:26:24.369Z,7.30
2022-12-24T23:31:27.728Z,7.30
2022-12-24T23:36:30.667Z,7.30
2022-12-24T23:41:33.711Z,7.30
2022-12-24T23:46:39.163Z,7.30
2022-12-24T23:51:42.585Z,7.40
2022-12-24T23:56:45.689Z,7.50
